createdAt,value
2022-09-20T00:01:09.095Z,10.00
2022-09-20T00:03:42.207Z,9.90
2022-09-20T00:06:12.474Z,9.90
2022-09-20T00:08:40.572Z,9.90
2022-09-20T00:11:19.675Z,9.90
2022-09-20T00:13:49.031Z,9.90
2022-09-20T00:16:20.342Z,9.90
2022-09-20T00:18:56.763Z,9.90
2022-09-20T00:21:27.311Z,9.90
2022-09-20T00:23:54.548Z,9.90
2022-09-20T00:26:21.874Z,9.90
2022-09-20T00:28:48.855Z,9.90
2022-09-20T00:31:16.059Z,9.90
2022-09-20T00:34:02.114Z,9.90
2022-09-20T00:36:29.012Z,9.90
2022-09-20T00:38:58.229Z,9.90
2022-09-20T00:41:25.508Z,9.80
2022-09-20T00:43:53.002Z,9.80
2022-09-20T00:46:34.995Z,9.90
2022-09-20T00:49:20.577Z,9.80
2022-09-20T00:51:57.821Z,9.80
2022-09-20T00:54:25.445Z,9.80
2022-09-20T00:56:52.578Z,9.80
2022-09-20T00:59:36.895Z,9.80
2022-09-20T01:02:09.693Z,9.80
2022-09-20T01:04:39.677Z,9.80
2022-09-20T01:07:09.175Z,9.80
2022-09-20T01:09:36.178Z,9.80
2022-09-20T01:12:07.882Z,9.80
2022-09-20T01:14:35.503Z,9.90
2022-09-20T01:17:05.531Z,9.90
2022-09-20T01:20:03.689Z,10.00
2022-09-20T01:22:52.115Z,10.00
2022-09-20T01:25:33.918Z,10.10
2022-09-20T01:28:00.885Z,10.20
2022-09-20T01:30:40.874Z,10.30
2022-09-20T01:33:44.509Z,10.40
2022-09-20T01:36:15.966Z,10.40
2022-09-20T01:38:53.699Z,10.50
2022-09-20T01:41:26.783Z,10.50
2022-09-20T01:44:21.076Z,10.60
2022-09-20T01:46:53.762Z,10.70
2022-09-20T01:49:45.417Z,10.70
2022-09-20T01:52:37.180Z,10.80
2022-09-20T01:55:25.680Z,10.80
2022-09-20T01:58:29.398Z,10.90
2022-09-20T02:01:26.783Z,11.00
2022-09-20T02:04:21.662Z,11.00
2022-09-20T02:07:26.845Z,11.00
2022-09-20T02:10:16.919Z,11.00
2022-09-20T02:13:10.359Z,11.00
2022-09-20T02:16:15.260Z,11.00
2022-09-20T02:19:19.480Z,11.10
2022-09-20T02:22:10.551Z,11.10
2022-09-20T02:25:04.296Z,11.20
2022-09-20T02:28:05.721Z,11.20
2022-09-20T02:31:05.212Z,11.20
2022-09-20T02:33:57.452Z,11.30
2022-09-20T02:37:01.772Z,11.30
2022-09-20T02:39:35.522Z,11.40
2022-09-20T02:42:28.192Z,11.40
2022-09-20T02:45:00.999Z,11.40
2022-09-20T02:47:38.336Z,11.40
2022-09-20T02:50:05.219Z,11.40
2022-09-20T02:52:46.661Z,11.50
2022-09-20T02:55:28.722Z,11.50
2022-09-20T02:58:07.556Z,11.50
2022-09-20T03:00:53.924Z,11.50
2022-09-20T03:03:42.201Z,11.60
2022-09-20T03:06:32.637Z,11.60
2022-09-20T03:09:17.321Z,11.60
2022-09-20T03:11:55.507Z,11.60
2022-09-20T03:14:36.552Z,11.60
2022-09-20T03:17:29.023Z,11.60
2022-09-20T03:20:06.018Z,11.60
2022-09-20T03:23:00.284Z,11.60
2022-09-20T03:25:39.485Z,11.60
2022-09-20T03:28:27.708Z,11.70
2022-09-20T03:31:06.249Z,11.70
2022-09-20T03:33:47.669Z,11.70
2022-09-20T03:36:26.090Z,11.70
2022-09-20T03:38:56.060Z,11.70
2022-09-20T03:41:47.109Z,11.70
2022-09-20T03:44:25.973Z,11.80
2022-09-20T03:47:13.183Z,11.70
2022-09-20T03:50:13.418Z,11.70
2022-09-20T03:53:16.347Z,11.70
2022-09-20T03:56:07.917Z,11.70
2022-09-20T03:58:44.366Z,11.70
2022-09-20T04:01:36.701Z,11.70
2022-09-20T04:04:30.200Z,11.70
2022-09-20T04:07:28.211Z,11.70
2022-09-20T04:10:18.789Z,11.70
2022-09-20T04:13:17.537Z,11.70
2022-09-20T04:16:07.001Z,11.70
2022-09-20T04:18:57.845Z,11.80
2022-09-20T04:21:43.868Z,11.80
2022-09-20T04:24:33.240Z,11.80
2022-09-20T04:27:14.264Z,11.80
2022-09-20T04:29:48.125Z,11.80
2022-09-20T04:32:46.905Z,11.80
2022-09-20T04:36:10.170Z,11.80
2022-09-20T04:38:37.599Z,11.80
2022-09-20T04:41:17.908Z,11.80
2022-09-20T04:44:06.533Z,11.80
2022-09-20T04:47:13.058Z,11.70
2022-09-20T04:50:01.987Z,11.70
2022-09-20T04:52:53.157Z,11.70
2022-09-20T04:55:47.160Z,11.80
2022-09-20T04:58:25.898Z,11.80
2022-09-20T05:01:11.477Z,11.80
2022-09-20T05:03:59.921Z,11.80
2022-09-20T05:06:51.027Z,11.80
2022-09-20T05:09:56.457Z,11.80
2022-09-20T05:15:41.707Z,11.80
2022-09-20T05:18:27.238Z,11.80
2022-09-20T05:21:29.537Z,11.80
2022-09-20T05:24:08.395Z,11.80
2022-09-20T05:27:06.344Z,11.80
2022-09-20T05:29:56.948Z,11.80
2022-09-20T05:32:28.503Z,11.90
2022-09-20T05:35:24.143Z,11.90
2022-09-20T05:38:24.485Z,11.90
2022-09-20T05:41:03.591Z,11.90
2022-09-20T05:43:36.963Z,12.00
2022-09-20T05:46:09.752Z,12.00
2022-09-20T05:48:39.767Z,12.00
2022-09-20T05:51:40.968Z,12.10
2022-09-20T05:54:43.847Z,12.10
2022-09-20T05:57:16.152Z,12.20
2022-09-20T06:00:18.011Z,12.20
2022-09-20T06:03:06.375Z,12.30
2022-09-20T06:05:46.293Z,12.30
2022-09-20T06:08:28.407Z,12.30
2022-09-20T06:11:32.887Z,12.40
2022-09-20T06:14:18.946Z,12.40
2022-09-20T06:17:12.932Z,12.40
2022-09-20T06:19:47.846Z,12.50
2022-09-20T06:22:27.899Z,12.50
2022-09-20T06:25:10.050Z,12.50
2022-09-20T06:27:43.104Z,12.50
2022-09-20T06:30:43.833Z,12.50
2022-09-20T06:33:16.767Z,12.50
2022-09-20T06:36:26.477Z,12.50
2022-09-20T06:39:36.444Z,12.60
2022-09-20T06:42:03.528Z,12.60
2022-09-20T06:44:31.278Z,12.70
2022-09-20T06:46:58.220Z,12.70
2022-09-20T06:49:29.196Z,12.80
2022-09-20T06:51:56.661Z,12.90
2022-09-20T06:54:23.569Z,12.90
2022-09-20T06:56:51.465Z,13.00
2022-09-20T06:59:18.311Z,13.00
2022-09-20T07:01:45.307Z,13.10
2022-09-20T07:04:12.378Z,13.20
2022-09-20T07:06:40.459Z,13.20
2022-09-20T07:09:07.589Z,13.30
2022-09-20T07:11:34.881Z,13.30
2022-09-20T07:14:02.575Z,13.40
2022-09-20T07:16:30.014Z,13.40
2022-09-20T07:18:57.356Z,13.40
2022-09-20T07:21:24.563Z,13.40
2022-09-20T07:23:53.914Z,13.50
2022-09-20T07:26:25.553Z,13.50
2022-09-20T07:28:53.257Z,13.60
2022-09-20T07:31:22.933Z,13.60
2022-09-20T07:33:50.004Z,13.70
2022-09-20T07:36:17.350Z,13.90
2022-09-20T07:38:48.805Z,14.10
2022-09-20T07:41:18.986Z,14.20
2022-09-20T07:43:46.665Z,14.30
2022-09-20T07:46:13.706Z,14.50
2022-09-20T07:48:41.624Z,14.60
2022-09-20T07:51:12.725Z,14.60
2022-09-20T07:53:40.498Z,14.60
2022-09-20T07:56:11.931Z,14.60
2022-09-20T07:58:39.552Z,14.60
2022-09-20T08:01:09.032Z,14.60
2022-09-20T08:03:36.466Z,14.60
2022-09-20T08:06:09.552Z,14.60
2022-09-20T08:08:39.720Z,14.60
2022-09-20T08:11:12.746Z,14.70
2022-09-20T08:16:29.941Z,15.00
2022-09-20T08:19:01.425Z,15.20
2022-09-20T08:21:31.587Z,15.30
2022-09-20T08:23:59.729Z,15.40
2022-09-20T08:26:28.533Z,15.60
2022-09-20T08:28:57.395Z,15.70
2022-09-20T08:31:26.882Z,15.60
2022-09-20T08:33:54.659Z,15.70
2022-09-20T08:36:24.552Z,15.80
2022-09-20T08:41:55.676Z,16.10
2022-09-20T08:44:35.092Z,16.10
2022-09-20T08:47:09.785Z,16.10
2022-09-20T08:49:38.012Z,16.30
2022-09-20T08:52:10.256Z,16.40
2022-09-20T08:54:37.557Z,16.40
2022-09-20T08:57:14.185Z,16.40
2022-09-20T08:59:41.196Z,16.40
2022-09-20T09:02:20.214Z,16.40
2022-09-20T09:04:49.050Z,16.40
2022-09-20T09:07:21.782Z,16.50
2022-09-20T09:09:52.658Z,16.70
2022-09-20T09:12:23.146Z,16.80
2022-09-20T09:14:55.159Z,17.00
2022-09-20T09:17:28.315Z,17.00
2022-09-20T09:20:04.616Z,17.10
2022-09-20T09:22:44.029Z,17.20
2022-09-20T09:25:34.326Z,17.10
2022-09-20T09:28:13.211Z,17.00
2022-09-20T09:30:46.648Z,16.90
2022-09-20T09:33:24.127Z,16.80
2022-09-20T09:36:00.164Z,16.70
2022-09-20T09:38:30.408Z,16.50
2022-09-20T09:41:00.364Z,16.30
2022-09-20T09:43:36.063Z,16.20
2022-09-20T09:46:22.223Z,16.20
2022-09-20T09:49:17.257Z,16.30
2022-09-20T09:52:15.104Z,16.30
2022-09-20T09:54:52.821Z,16.60
2022-09-20T09:57:33.868Z,16.90
2022-09-20T10:00:27.052Z,17.10
2022-09-20T10:03:22.350Z,16.90
2022-09-20T10:06:14.643Z,16.70
2022-09-20T10:08:44.649Z,16.40
2022-09-20T10:12:09.043Z,16.40
2022-09-20T10:15:07.941Z,16.50
2022-09-20T10:17:55.741Z,16.60
2022-09-20T10:20:50.168Z,16.40
2022-09-20T10:24:01.358Z,16.10
2022-09-20T10:26:45.290Z,15.90
2022-09-20T10:29:35.337Z,15.90
2022-09-20T10:32:37.522Z,15.80
2022-09-20T10:35:21.869Z,15.90
2022-09-20T10:38:15.280Z,16.00
2022-09-20T10:41:06.614Z,16.00
2022-09-20T10:43:45.880Z,16.00
2022-09-20T10:46:53.203Z,16.00
2022-09-20T10:49:50.942Z,15.90
2022-09-20T10:52:31.598Z,15.90
2022-09-20T10:55:31.923Z,16.00
2022-09-20T10:58:08.903Z,16.00
2022-09-20T11:01:04.808Z,16.00
2022-09-20T11:03:43.833Z,16.00
2022-09-20T11:06:37.609Z,16.10
2022-09-20T11:09:13.984Z,16.10
2022-09-20T11:11:46.249Z,16.10
2022-09-20T11:14:18.046Z,16.10
2022-09-20T11:17:10.699Z,16.10
2022-09-20T11:19:55.402Z,16.10
2022-09-20T11:22:30.958Z,16.00
2022-09-20T11:25:06.634Z,16.00
2022-09-20T11:27:42.010Z,16.10
2022-09-20T11:30:20.626Z,16.10
2022-09-20T11:33:13.087Z,16.10
2022-09-20T11:35:46.329Z,16.10
2022-09-20T11:38:32.868Z,16.20
2022-09-20T11:41:02.972Z,16.20
2022-09-20T11:43:31.053Z,16.30
2022-09-20T11:46:02.826Z,16.40
2022-09-20T11:48:47.364Z,16.50
2022-09-20T11:51:27.907Z,16.60
2022-09-20T11:54:28.136Z,16.70
2022-09-20T11:56:57.019Z,16.80
2022-09-20T11:59:40.419Z,16.90
2022-09-20T12:02:37.210Z,17.10
2022-09-20T12:05:06.528Z,17.20
2022-09-20T12:07:44.137Z,17.30
2022-09-20T12:10:30.492Z,17.40
2022-09-20T12:13:00.697Z,17.60
2022-09-20T12:15:33.435Z,17.80
2022-09-20T12:18:00.226Z,17.90
2022-09-20T12:20:32.963Z,18.10
2022-09-20T12:23:40.822Z,18.20
2022-09-20T12:26:21.040Z,18.30
2022-09-20T12:28:50.552Z,18.30
2022-09-20T12:31:29.346Z,18.30
2022-09-20T12:34:25.830Z,18.20
2022-09-20T12:36:55.739Z,17.90
2022-09-20T12:39:34.510Z,17.60
2022-09-20T12:42:02.935Z,17.20
2022-09-20T12:45:07.240Z,17.00
2022-09-20T12:47:36.604Z,16.70
2022-09-20T12:50:31.203Z,16.50
2022-09-20T12:52:58.812Z,16.20
2022-09-20T12:55:41.120Z,16.10
2022-09-20T12:58:16.870Z,16.00
2022-09-20T13:00:46.420Z,15.90
2022-09-20T13:03:22.750Z,15.80
2022-09-20T13:06:13.418Z,15.80
2022-09-20T13:09:04.414Z,15.70
2022-09-20T13:11:39.193Z,15.70
2022-09-20T13:14:06.896Z,15.70
2022-09-20T13:16:39.519Z,15.70
2022-09-20T13:19:08.064Z,15.70
2022-09-20T13:21:38.584Z,15.70
2022-09-20T13:24:08.033Z,15.80
2022-09-20T13:26:40.884Z,15.80
2022-09-20T13:29:10.239Z,15.80
2022-09-20T13:31:37.348Z,15.80
2022-09-20T13:34:18.956Z,15.90
2022-09-20T13:36:46.435Z,15.90
2022-09-20T13:39:35.249Z,16.00
2022-09-20T13:42:07.069Z,16.00
2022-09-20T13:44:34.808Z,16.00
2022-09-20T13:47:01.956Z,16.10
2022-09-20T13:49:32.733Z,16.10
2022-09-20T13:52:12.363Z,16.10
2022-09-20T13:54:39.206Z,16.10
2022-09-20T13:57:18.525Z,16.10
2022-09-20T13:59:46.613Z,16.20
2022-09-20T14:02:27.180Z,16.30
2022-09-20T14:04:57.858Z,16.40
2022-09-20T14:07:28.204Z,16.40
2022-09-20T14:09:56.670Z,16.50
2022-09-20T14:12:25.123Z,16.50
2022-09-20T14:14:54.208Z,16.70
2022-09-20T14:17:24.309Z,16.80
2022-09-20T14:19:54.441Z,17.00
2022-09-20T14:22:28.519Z,17.20
2022-09-20T14:25:04.430Z,17.60
2022-09-20T14:27:31.465Z,17.90
2022-09-20T14:29:59.070Z,18.20
2022-09-20T14:32:50.372Z,18.40
2022-09-20T14:35:22.205Z,18.60
2022-09-20T14:37:54.027Z,18.70
2022-09-20T14:40:27.347Z,18.80
2022-09-20T14:42:54.210Z,18.80
2022-09-20T14:45:25.816Z,18.70
2022-09-20T14:48:10.433Z,18.50
2022-09-20T14:50:38.160Z,18.30
2022-09-20T14:53:21.419Z,18.30
2022-09-20T14:56:15.507Z,18.10
2022-09-20T14:59:16.907Z,17.80
2022-09-20T15:01:54.458Z,17.50
2022-09-20T15:04:23.320Z,17.00
2022-09-20T15:06:51.380Z,16.60
2022-09-20T15:09:20.641Z,16.40
2022-09-20T15:11:49.985Z,16.10
2022-09-20T15:14:17.041Z,15.90
2022-09-20T15:16:44.037Z,15.70
2022-09-20T15:19:11.007Z,15.70
2022-09-20T15:21:37.868Z,15.60
2022-09-20T15:24:04.869Z,15.50
2022-09-20T15:26:32.978Z,15.50
2022-09-20T15:29:00.824Z,15.60
2022-09-20T15:31:28.618Z,15.70
2022-09-20T15:33:55.545Z,15.90
2022-09-20T15:36:22.439Z,16.00
2022-09-20T15:38:49.529Z,16.20
2022-09-20T15:41:16.440Z,16.20
2022-09-20T15:43:43.469Z,16.30
2022-09-20T15:46:26.951Z,16.40
2022-09-20T15:48:54.438Z,16.40
2022-09-20T15:51:21.656Z,16.50
2022-09-20T15:54:00.118Z,16.50
2022-09-20T15:56:30.273Z,16.40
2022-09-20T15:59:08.683Z,16.40
2022-09-20T16:01:43.867Z,16.20
2022-09-20T16:04:13.484Z,16.00
2022-09-20T16:06:43.576Z,15.80
2022-09-20T16:09:11.098Z,15.60
2022-09-20T16:11:38.845Z,15.50
2022-09-20T16:14:05.842Z,15.30
2022-09-20T16:16:39.779Z,15.00
2022-09-20T16:19:25.023Z,14.70
2022-09-20T16:21:58.205Z,14.30
2022-09-20T16:24:34.032Z,14.10
2022-09-20T16:27:03.018Z,13.90
2022-09-20T16:29:31.143Z,13.70
2022-09-20T16:31:59.548Z,13.60
2022-09-20T16:34:31.184Z,13.50
2022-09-20T16:37:00.738Z,13.40
2022-09-20T16:39:29.030Z,13.40
2022-09-20T16:42:07.431Z,13.40
2022-09-20T16:44:38.683Z,13.50
2022-09-20T16:47:08.833Z,13.50
2022-09-20T16:49:36.794Z,13.60
2022-09-20T16:52:08.629Z,13.60
2022-09-20T16:54:36.016Z,13.60
2022-09-20T16:57:03.284Z,13.60
2022-09-20T16:59:30.248Z,13.50
2022-09-20T17:01:57.299Z,13.50
2022-09-20T17:04:24.234Z,13.40
2022-09-20T17:06:52.083Z,13.30
2022-09-20T17:09:19.089Z,13.20
2022-09-20T17:11:50.355Z,13.20
2022-09-20T17:14:20.245Z,13.10
2022-09-20T17:16:48.320Z,13.10
2022-09-20T17:19:18.443Z,13.00
2022-09-20T17:21:49.957Z,13.00
2022-09-20T17:24:19.275Z,12.90
2022-09-20T17:26:46.517Z,12.80
2022-09-20T17:29:16.893Z,12.70
2022-09-20T17:31:48.834Z,12.70
2022-09-20T17:34:21.310Z,12.60
2022-09-20T17:36:49.230Z,12.60
2022-09-20T17:39:17.080Z,12.50
2022-09-20T17:41:48.394Z,12.50
2022-09-20T17:44:16.714Z,12.50
2022-09-20T17:46:49.536Z,12.40
2022-09-20T17:49:22.438Z,12.40
2022-09-20T17:51:54.878Z,12.40
2022-09-20T17:54:23.340Z,12.30
2022-09-20T17:56:53.227Z,12.20
2022-09-20T17:59:20.709Z,12.20
2022-09-20T18:01:50.639Z,12.20
2022-09-20T18:04:20.665Z,12.10
2022-09-20T18:06:49.377Z,12.10
2022-09-20T18:09:18.553Z,12.00
2022-09-20T18:11:49.992Z,12.00
2022-09-20T18:14:19.016Z,12.00
2022-09-20T18:16:46.872Z,11.90
2022-09-20T18:19:17.014Z,11.90
2022-09-20T18:21:44.483Z,11.90
2022-09-20T18:24:12.218Z,11.90
2022-09-20T18:26:39.704Z,11.80
2022-09-20T18:29:14.132Z,11.80
2022-09-20T18:31:50.837Z,11.80
2022-09-20T18:34:22.966Z,11.70
2022-09-20T18:36:55.647Z,11.70
2022-09-20T18:39:29.725Z,11.60
2022-09-20T18:41:57.501Z,11.60
2022-09-20T18:44:26.128Z,11.60
2022-09-20T18:46:54.161Z,11.50
2022-09-20T18:49:21.739Z,11.50
2022-09-20T18:51:49.470Z,11.50
2022-09-20T18:54:16.766Z,11.50
2022-09-20T18:56:48.695Z,11.40
2022-09-20T18:59:25.026Z,11.40
2022-09-20T19:01:55.208Z,11.40
2022-09-20T19:04:49.515Z,11.40
2022-09-20T19:07:28.326Z,11.30
2022-09-20T19:09:58.196Z,11.30
2022-09-20T19:12:34.352Z,11.20
2022-09-20T19:15:40.112Z,11.20
2022-09-20T19:18:31.313Z,11.20
2022-09-20T19:21:27.387Z,11.10
2022-09-20T19:24:03.665Z,11.10
2022-09-20T19:26:38.076Z,11.10
2022-09-20T19:29:21.092Z,11.00
2022-09-20T19:31:55.518Z,11.00
2022-09-20T19:34:27.858Z,11.00
2022-09-20T19:37:20.627Z,11.00
2022-09-20T19:40:06.756Z,10.90
2022-09-20T19:42:56.653Z,10.90
2022-09-20T19:45:29.056Z,10.90
2022-09-20T19:48:03.925Z,10.90
2022-09-20T19:50:48.094Z,10.80
2022-09-20T19:53:17.844Z,10.80
2022-09-20T19:55:48.362Z,10.80
2022-09-20T19:58:15.891Z,10.80
2022-09-20T20:00:47.302Z,10.80
2022-09-20T20:03:16.090Z,10.80
2022-09-20T20:05:51.055Z,10.80
2022-09-20T20:08:40.710Z,10.80
2022-09-20T20:11:07.567Z,10.70
2022-09-20T20:14:03.133Z,10.70
2022-09-20T20:17:11.891Z,10.70
2022-09-20T20:20:07.015Z,10.70
2022-09-20T20:22:39.932Z,10.60
2022-09-20T20:25:48.091Z,10.60
2022-09-20T20:28:14.976Z,10.60
2022-09-20T20:30:42.497Z,10.60
2022-09-20T20:33:18.993Z,10.50
2022-09-20T20:35:56.808Z,10.50
2022-09-20T20:38:26.260Z,10.50
2022-09-20T20:41:07.711Z,10.50
2022-09-20T20:43:38.360Z,10.50
2022-09-20T20:46:07.325Z,10.50
2022-09-20T20:48:34.872Z,10.50
2022-09-20T20:51:10.377Z,10.40
2022-09-20T20:53:39.803Z,10.50
2022-09-20T20:56:14.933Z,10.40
2022-09-20T20:58:44.022Z,10.40
2022-09-20T21:01:18.255Z,10.40
2022-09-20T21:03:53.494Z,10.40
2022-09-20T21:06:22.411Z,10.30
2022-09-20T21:08:50.004Z,10.30
2022-09-20T21:11:29.276Z,10.30
2022-09-20T21:13:58.003Z,10.30
2022-09-20T21:16:29.244Z,10.40
2022-09-20T21:18:56.625Z,10.30
2022-09-20T21:21:33.250Z,10.30
2022-09-20T21:24:11.917Z,10.30
2022-09-20T21:26:39.788Z,10.20
2022-09-20T21:29:10.622Z,10.20
2022-09-20T21:31:40.182Z,10.20
2022-09-20T21:34:08.816Z,10.20
2022-09-20T21:36:37.667Z,10.20
2022-09-20T21:39:06.019Z,10.10
2022-09-20T21:41:35.352Z,10.10
2022-09-20T21:44:03.969Z,10.10
2022-09-20T21:46:41.854Z,10.10
2022-09-20T21:49:11.027Z,10.00
2022-09-20T21:51:39.308Z,10.00
2022-09-20T21:54:06.357Z,10.00
2022-09-20T21:56:35.978Z,10.00
2022-09-20T21:59:04.353Z,10.00
2022-09-20T22:01:36.110Z,10.00
2022-09-20T22:04:11.195Z,10.00
2022-09-20T22:06:40.593Z,10.00
2022-09-20T22:09:10.578Z,9.90
2022-09-20T22:11:40.948Z,9.90
2022-09-20T22:14:09.259Z,9.90
2022-09-20T22:16:38.518Z,9.90
2022-09-20T22:19:07.779Z,9.90
2022-09-20T22:21:43.032Z,9.90
2022-09-20T22:24:11.903Z,9.80
2022-09-20T22:26:42.845Z,9.80
2022-09-20T22:29:10.429Z,9.80
2022-09-20T22:31:44.653Z,9.80
2022-09-20T22:34:15.429Z,9.80
2022-09-20T22:36:42.757Z,9.70
2022-09-20T22:39:11.371Z,9.70
2022-09-20T22:41:41.049Z,9.70
2022-09-20T22:44:08.330Z,9.70
2022-09-20T22:46:35.567Z,9.70
2022-09-20T22:49:08.221Z,9.70
2022-09-20T22:51:35.364Z,9.60
2022-09-20T22:54:10.340Z,9.60
2022-09-20T22:56:38.498Z,9.60
2022-09-20T22:59:08.425Z,9.60
2022-09-20T23:01:37.272Z,9.50
2022-09-20T23:04:09.987Z,9.50
2022-09-20T23:06:38.105Z,9.50
2022-09-20T23:09:08.846Z,9.50
2022-09-20T23:11:37.140Z,9.50
2022-09-20T23:14:06.007Z,9.40
2022-09-20T23:16:35.625Z,9.40
2022-09-20T23:19:04.369Z,9.40
2022-09-20T23:21:31.922Z,9.40
2022-09-20T23:24:00.763Z,9.40
2022-09-20T23:26:32.580Z,9.40
2022-09-20T23:29:02.744Z,9.30
2022-09-20T23:31:30.907Z,9.30
2022-09-20T23:33:59.884Z,9.30
2022-09-20T23:36:28.947Z,9.30
2022-09-20T23:38:56.880Z,9.30
2022-09-20T23:41:25.260Z,9.30
2022-09-20T23:43:52.526Z,9.30
2022-09-20T23:46:21.133Z,9.30
2022-09-20T23:48:50.496Z,9.20
2022-09-20T23:51:22.507Z,9.20
2022-09-20T23:53:50.715Z,9.20
2022-09-20T23:56:18.101Z,9.20
2022-09-20T23:58:45.193Z,9.20
